createdAt,value
2022-12-31T00:01:50.178Z,98.81
2022-12-31T00:04:20.698Z,98.76
2022-12-31T00:06:51.595Z,98.89
2022-12-31T00:09:21.960Z,98.95
2022-12-31T00:11:52.364Z,98.91
2022-12-31T00:14:22.838Z,98.84
2022-12-31T00:16:53.189Z,99.06
2022-12-31T00:19:23.610Z,99.10
2022-12-31T00:21:53.943Z,99.08
2022-12-31T00:24:24.590Z,99.22
2022-12-31T00:26:54.946Z,99.12
2022-12-31T00:29:25.912Z,99.09
2022-12-31T00:31:56.271Z,99.05
2022-12-31T00:34:26.934Z,99.04
2022-12-31T00:36:57.294Z,99.22
2022-12-31T00:39:27.785Z,99.03
2022-12-31T00:41:58.663Z,99.00
2022-12-31T00:44:29.062Z,99.06
2022-12-31T00:46:59.515Z,98.94
2022-12-31T00:49:29.843Z,98.86
2022-12-31T00:52:00.204Z,98.84
2022-12-31T00:54:30.535Z,98.96
2022-12-31T00:57:01.015Z,98.87
2022-12-31T00:59:31.426Z,98.65
2022-12-31T01:02:02.217Z,98.75
2022-12-31T01:04:33.059Z,98.66
2022-12-31T01:07:03.840Z,98.85
2022-12-31T01:09:34.513Z,98.71
2022-12-31T01:12:05.342Z,98.84
2022-12-31T01:14:35.675Z,98.72
2022-12-31T01:17:06.007Z,98.49
2022-12-31T01:19:36.322Z,98.49
2022-12-31T01:22:06.648Z,98.73
2022-12-31T01:24:37.048Z,98.72
2022-12-31T01:27:07.507Z,98.62
2022-12-31T01:29:38.107Z,98.63
2022-12-31T01:32:08.693Z,98.48
2022-12-31T01:34:39.000Z,98.37
2022-12-31T01:37:09.923Z,98.31
2022-12-31T01:39:40.285Z,98.30
2022-12-31T01:42:13.121Z,98.26
2022-12-31T01:44:56.041Z,98.42
2022-12-31T01:47:37.618Z,98.54
2022-12-31T01:50:12.810Z,98.37
2022-12-31T01:52:45.649Z,98.29
2022-12-31T01:55:16.175Z,98.39
2022-12-31T01:57:47.441Z,98.45
2022-12-31T02:00:18.231Z,98.51
2022-12-31T02:02:48.904Z,98.35
2022-12-31T02:05:23.795Z,98.53
2022-12-31T02:07:54.541Z,98.39
2022-12-31T02:10:24.834Z,98.24
2022-12-31T02:12:55.342Z,98.12
2022-12-31T02:15:36.493Z,98.08
2022-12-31T02:18:12.974Z,98.02
2022-12-31T02:21:14.250Z,97.82
2022-12-31T02:24:06.329Z,97.79
2022-12-31T02:26:49.598Z,97.81
2022-12-31T02:30:00.077Z,97.66
2022-12-31T02:32:40.104Z,97.73
2022-12-31T02:35:13.576Z,97.59
2022-12-31T02:37:45.931Z,97.43
2022-12-31T02:40:18.957Z,97.51
2022-12-31T02:42:55.099Z,97.60
2022-12-31T02:45:30.428Z,97.41
2022-12-31T02:48:13.977Z,97.35
2022-12-31T02:50:55.385Z,97.44
2022-12-31T02:53:40.453Z,97.27
2022-12-31T02:56:14.220Z,97.06
2022-12-31T02:59:07.938Z,96.91
2022-12-31T03:01:58.559Z,96.82
2022-12-31T03:04:36.330Z,96.51
2022-12-31T03:07:08.408Z,96.21
2022-12-31T03:09:39.381Z,96.13
2022-12-31T03:12:29.776Z,95.85
2022-12-31T03:15:00.341Z,95.78
2022-12-31T03:17:30.697Z,95.77
2022-12-31T03:20:22.045Z,95.69
2022-12-31T03:22:52.463Z,95.69
2022-12-31T03:25:35.573Z,95.49
2022-12-31T03:28:05.488Z,95.40
2022-12-31T03:30:37.258Z,95.30
2022-12-31T03:33:08.511Z,95.13
2022-12-31T03:35:40.900Z,95.22
2022-12-31T03:38:11.224Z,95.17
2022-12-31T03:40:42.778Z,95.03
2022-12-31T03:43:13.144Z,94.93
2022-12-31T03:45:43.601Z,94.88
2022-12-31T03:48:13.957Z,94.70
2022-12-31T03:50:44.244Z,94.60
2022-12-31T03:53:14.629Z,94.53
2022-12-31T03:55:44.932Z,94.61
2022-12-31T03:58:15.235Z,94.71
2022-12-31T04:00:45.788Z,94.74
2022-12-31T04:03:16.394Z,94.93
2022-12-31T04:05:46.941Z,95.02
2022-12-31T04:08:17.321Z,95.17
2022-12-31T04:10:48.120Z,95.17
2022-12-31T04:13:18.562Z,95.29
2022-12-31T04:15:52.325Z,95.33
2022-12-31T04:18:23.026Z,95.52
2022-12-31T04:20:53.364Z,95.68
2022-12-31T04:23:23.652Z,95.69
2022-12-31T04:25:54.301Z,95.67
2022-12-31T04:28:24.834Z,95.57
2022-12-31T04:30:55.169Z,95.60
2022-12-31T04:33:25.558Z,95.42
2022-12-31T04:36:00.877Z,95.49
2022-12-31T04:38:31.248Z,95.52
2022-12-31T04:41:20.643Z,95.63
2022-12-31T04:43:52.370Z,95.69
2022-12-31T04:46:24.500Z,95.94
2022-12-31T04:48:55.094Z,95.98
2022-12-31T04:51:25.932Z,95.94
2022-12-31T04:53:56.354Z,95.73
2022-12-31T04:56:27.387Z,95.88
2022-12-31T04:58:57.936Z,95.67
2022-12-31T05:01:28.324Z,95.45
2022-12-31T05:03:58.694Z,95.37
2022-12-31T05:06:28.977Z,95.24
2022-12-31T05:08:59.559Z,95.07
2022-12-31T05:11:31.029Z,94.94
2022-12-31T05:14:01.337Z,94.91
2022-12-31T05:16:31.719Z,94.55
2022-12-31T05:19:02.033Z,94.27
2022-12-31T05:21:32.340Z,94.03
2022-12-31T05:24:02.662Z,93.92
2022-12-31T05:26:32.979Z,94.00
2022-12-31T05:29:03.339Z,93.95
2022-12-31T05:31:33.656Z,93.99
2022-12-31T05:34:04.474Z,94.24
2022-12-31T05:36:34.762Z,94.22
2022-12-31T05:39:05.184Z,94.26
2022-12-31T05:41:35.476Z,94.43
2022-12-31T05:44:06.123Z,94.40
2022-12-31T05:46:36.572Z,94.52
2022-12-31T05:49:06.863Z,94.58
2022-12-31T05:51:37.563Z,94.28
2022-12-31T05:54:08.072Z,94.06
2022-12-31T05:56:40.185Z,93.90
2022-12-31T05:59:10.490Z,93.76
2022-12-31T06:01:40.790Z,93.67
2022-12-31T06:04:11.289Z,93.75
2022-12-31T06:06:41.659Z,93.48
2022-12-31T06:09:12.053Z,93.34
2022-12-31T06:11:42.387Z,93.18
2022-12-31T06:14:13.081Z,92.89
2022-12-31T06:16:43.506Z,92.76
2022-12-31T06:19:13.865Z,92.42
2022-12-31T06:21:44.199Z,92.17
2022-12-31T06:24:14.570Z,91.88
2022-12-31T06:26:44.948Z,91.90
2022-12-31T06:29:15.306Z,91.66
2022-12-31T06:31:45.624Z,91.12
2022-12-31T06:34:15.993Z,91.18
2022-12-31T06:36:46.388Z,90.86
2022-12-31T06:39:17.013Z,90.71
2022-12-31T06:41:47.444Z,90.65
2022-12-31T06:44:17.804Z,90.52
2022-12-31T06:46:48.190Z,90.51
2022-12-31T06:49:20.028Z,90.44
2022-12-31T06:51:50.325Z,90.34
2022-12-31T06:54:20.937Z,90.19
2022-12-31T06:56:52.185Z,90.22
2022-12-31T06:59:28.732Z,90.32
2022-12-31T07:02:27.730Z,90.16
2022-12-31T07:05:25.251Z,90.13
2022-12-31T07:08:03.390Z,89.71
2022-12-31T07:10:40.083Z,89.62
2022-12-31T07:13:28.185Z,89.62
2022-12-31T07:16:06.838Z,89.33
2022-12-31T07:18:42.544Z,89.30
2022-12-31T07:21:16.493Z,89.21
2022-12-31T07:23:47.741Z,89.22
2022-12-31T07:26:23.467Z,88.99
2022-12-31T07:29:01.468Z,88.87
2022-12-31T07:31:39.514Z,88.26
2022-12-31T07:34:15.613Z,88.43
2022-12-31T07:37:02.466Z,88.26
2022-12-31T07:39:38.827Z,87.98
2022-12-31T07:42:15.332Z,87.77
2022-12-31T07:44:54.702Z,87.62
2022-12-31T07:47:28.135Z,87.22
2022-12-31T07:49:59.818Z,86.78
2022-12-31T07:52:31.032Z,86.84
2022-12-31T07:55:01.335Z,86.48
2022-12-31T07:57:36.772Z,86.30
2022-12-31T08:00:13.501Z,86.28
2022-12-31T08:03:03.598Z,86.41
2022-12-31T08:05:37.915Z,86.00
2022-12-31T08:08:24.371Z,85.82
2022-12-31T08:11:04.517Z,85.53
2022-12-31T08:13:35.605Z,85.04
2022-12-31T08:16:09.413Z,85.53
2022-12-31T08:18:40.647Z,85.53
2022-12-31T08:21:18.888Z,85.53
2022-12-31T08:23:58.244Z,85.55
2022-12-31T08:26:36.237Z,85.44
2022-12-31T08:29:13.538Z,85.36
2022-12-31T08:31:51.488Z,84.98
2022-12-31T08:34:26.353Z,84.89
2022-12-31T08:37:04.098Z,84.61
2022-12-31T08:39:45.116Z,84.57
2022-12-31T08:42:26.822Z,84.66
2022-12-31T08:45:04.793Z,84.61
2022-12-31T08:47:42.113Z,84.36
2022-12-31T08:50:19.286Z,83.72
2022-12-31T08:52:50.970Z,84.20
2022-12-31T08:55:23.129Z,84.26
2022-12-31T08:58:02.546Z,83.60
2022-12-31T09:00:33.190Z,83.78
2022-12-31T09:03:20.995Z,83.19
2022-12-31T09:06:00.511Z,83.26
2022-12-31T09:08:38.144Z,83.07
2022-12-31T09:11:19.190Z,82.95
2022-12-31T09:14:04.507Z,82.26
2022-12-31T09:16:43.743Z,82.57
2022-12-31T09:19:14.420Z,82.11
2022-12-31T09:21:46.094Z,82.15
2022-12-31T09:24:18.298Z,81.60
2022-12-31T09:26:55.540Z,81.11
2022-12-31T09:29:42.350Z,80.57
2022-12-31T09:32:22.354Z,79.95
2022-12-31T09:34:57.775Z,80.22
2022-12-31T09:37:40.283Z,79.47
2022-12-31T09:40:38.817Z,79.18
2022-12-31T09:43:46.487Z,78.83
2022-12-31T09:46:32.026Z,78.83
2022-12-31T09:49:26.703Z,78.15
2022-12-31T09:52:05.912Z,77.60
2022-12-31T09:54:53.956Z,76.71
2022-12-31T09:57:40.698Z,75.90
2022-12-31T10:00:16.719Z,75.15
2022-12-31T10:03:05.484Z,73.66
2022-12-31T10:05:53.766Z,72.56
2022-12-31T10:08:39.861Z,70.66
2022-12-31T10:11:17.550Z,69.78
2022-12-31T10:13:55.074Z,69.56
2022-12-31T10:16:37.653Z,68.46
2022-12-31T10:19:35.546Z,67.76
2022-12-31T10:22:15.378Z,66.91
2022-12-31T10:25:03.111Z,66.88
2022-12-31T10:27:44.931Z,66.50
2022-12-31T10:30:19.555Z,66.23
2022-12-31T10:33:00.404Z,66.61
2022-12-31T10:35:44.193Z,66.70
2022-12-31T10:38:25.469Z,66.89
2022-12-31T10:41:25.294Z,65.42
2022-12-31T10:44:31.542Z,64.78
2022-12-31T10:47:22.357Z,63.54
2022-12-31T10:50:20.034Z,63.58
2022-12-31T10:53:05.684Z,62.80
2022-12-31T10:56:07.326Z,62.58
2022-12-31T10:59:01.213Z,62.55
2022-12-31T11:01:40.105Z,63.39
2022-12-31T11:04:34.889Z,64.15
2022-12-31T11:07:32.123Z,65.28
2022-12-31T11:10:17.502Z,65.99
2022-12-31T11:13:23.128Z,66.53
2022-12-31T11:16:10.406Z,67.03
2022-12-31T11:18:48.969Z,67.95
2022-12-31T11:21:29.122Z,68.55
2022-12-31T11:24:06.330Z,68.77
2022-12-31T11:26:48.372Z,68.99
2022-12-31T11:29:29.100Z,69.26
2022-12-31T11:32:08.362Z,69.24
2022-12-31T11:34:59.124Z,69.66
2022-12-31T11:37:36.685Z,69.62
2022-12-31T11:40:22.613Z,69.43
2022-12-31T11:42:58.736Z,69.33
2022-12-31T11:45:50.808Z,68.80
2022-12-31T11:48:30.652Z,68.84
2022-12-31T11:51:11.431Z,68.91
2022-12-31T11:53:57.384Z,68.70
2022-12-31T11:56:31.058Z,68.79
2022-12-31T11:59:07.772Z,68.99
2022-12-31T12:01:49.017Z,68.54
2022-12-31T12:04:19.511Z,67.77
2022-12-31T12:06:51.763Z,67.14
2022-12-31T12:09:27.242Z,66.74
2022-12-31T12:12:03.184Z,66.49
2022-12-31T12:14:36.398Z,64.97
2022-12-31T12:17:09.800Z,63.61
2022-12-31T12:19:46.444Z,62.31
2022-12-31T12:22:22.685Z,61.80
2022-12-31T12:24:57.627Z,61.14
2022-12-31T12:27:33.389Z,60.78
2022-12-31T12:30:15.419Z,60.83
2022-12-31T12:32:54.018Z,60.58
2022-12-31T12:35:29.103Z,59.99
2022-12-31T12:38:04.993Z,59.57
2022-12-31T12:40:36.146Z,59.82
2022-12-31T12:43:06.860Z,59.10
2022-12-31T12:45:46.399Z,58.68
2022-12-31T12:48:26.590Z,58.07
2022-12-31T12:50:57.365Z,58.21
2022-12-31T12:53:35.746Z,57.60
2022-12-31T12:56:13.265Z,57.27
2022-12-31T12:58:55.500Z,56.77
2022-12-31T13:01:34.845Z,57.32
2022-12-31T13:04:36.177Z,57.61
2022-12-31T13:07:16.001Z,57.00
2022-12-31T13:09:59.501Z,57.47
2022-12-31T13:12:42.784Z,57.13
2022-12-31T13:15:22.642Z,58.16
2022-12-31T13:18:04.129Z,58.52
2022-12-31T13:20:37.808Z,58.64
2022-12-31T13:23:16.100Z,58.62
2022-12-31T13:25:57.811Z,58.41
2022-12-31T13:28:29.386Z,57.91
2022-12-31T13:31:06.820Z,58.25
2022-12-31T13:33:40.958Z,58.87
2022-12-31T13:36:15.330Z,58.84
2022-12-31T13:38:49.793Z,58.90
2022-12-31T13:41:24.035Z,59.44
2022-12-31T13:43:59.664Z,59.76
2022-12-31T13:46:38.772Z,60.58
2022-12-31T13:49:18.204Z,61.53
2022-12-31T13:51:50.518Z,61.62
2022-12-31T13:54:29.918Z,61.97
2022-12-31T13:57:04.452Z,62.80
2022-12-31T13:59:37.909Z,62.64
2022-12-31T14:02:14.292Z,63.38
2022-12-31T14:04:49.784Z,63.78
2022-12-31T14:07:23.298Z,64.09
2022-12-31T14:09:53.658Z,64.46
2022-12-31T14:12:33.343Z,64.74
2022-12-31T14:15:12.042Z,65.04
2022-12-31T14:17:46.456Z,64.82
2022-12-31T14:20:22.678Z,65.20
2022-12-31T14:22:57.313Z,65.45
2022-12-31T14:25:30.462Z,65.57
2022-12-31T14:28:04.237Z,65.59
2022-12-31T14:30:37.405Z,65.79
2022-12-31T14:33:29.536Z,65.56
2022-12-31T14:36:10.915Z,65.84
2022-12-31T14:38:55.846Z,65.62
2022-12-31T14:41:35.091Z,66.08
2022-12-31T14:44:14.564Z,66.09
2022-12-31T14:46:56.162Z,66.02
2022-12-31T14:49:42.495Z,66.06
2022-12-31T14:52:22.537Z,66.18
2022-12-31T14:55:03.131Z,66.19
2022-12-31T14:58:17.260Z,66.14
2022-12-31T15:00:35.169Z,66.40
2022-12-31T15:03:07.809Z,66.36
2022-12-31T15:05:39.298Z,66.45
2022-12-31T15:08:26.300Z,66.65
2022-12-31T15:11:29.987Z,66.60
2022-12-31T15:14:18.562Z,66.56
2022-12-31T15:16:53.786Z,66.79
2022-12-31T15:19:52.865Z,66.77
2022-12-31T15:22:33.515Z,67.10
2022-12-31T15:25:04.531Z,67.03
2022-12-31T15:27:37.018Z,67.25
2022-12-31T15:30:27.121Z,67.44
2022-12-31T15:32:58.549Z,67.50
2022-12-31T15:35:32.478Z,67.55
2022-12-31T15:38:04.974Z,67.72
2022-12-31T15:40:45.745Z,67.86
2022-12-31T15:43:19.566Z,67.83
2022-12-31T15:45:52.155Z,67.90
2022-12-31T15:48:25.823Z,67.97
2022-12-31T15:50:58.691Z,68.07
2022-12-31T15:53:29.719Z,68.07
2022-12-31T15:56:01.766Z,68.04
2022-12-31T15:58:35.747Z,68.03
2022-12-31T16:01:13.912Z,68.17
2022-12-31T16:03:48.224Z,68.06
2022-12-31T16:06:19.185Z,68.17
2022-12-31T16:08:51.650Z,67.82
2022-12-31T16:11:22.120Z,67.96
2022-12-31T16:13:55.254Z,67.98
2022-12-31T16:16:27.319Z,67.86
2022-12-31T16:18:58.366Z,67.83
2022-12-31T16:21:32.519Z,67.77
2022-12-31T16:24:06.771Z,67.64
2022-12-31T16:26:44.772Z,67.63
2022-12-31T16:29:16.671Z,67.71
2022-12-31T16:31:47.953Z,67.61
2022-12-31T16:34:21.934Z,67.67
2022-12-31T16:37:00.600Z,67.44
2022-12-31T16:39:33.858Z,67.55
2022-12-31T16:42:20.486Z,67.46
2022-12-31T16:44:52.818Z,67.61
2022-12-31T16:47:25.724Z,67.47
2022-12-31T16:50:03.968Z,67.13
2022-12-31T16:52:36.944Z,67.14
2022-12-31T16:55:09.540Z,67.18
2022-12-31T16:57:40.619Z,67.10
2022-12-31T17:00:20.839Z,67.19
2022-12-31T17:08:49.108Z,67.50
2022-12-31T17:11:28.706Z,67.59
2022-12-31T17:14:02.023Z,67.55
2022-12-31T17:16:32.414Z,67.41
2022-12-31T17:19:56.788Z,67.54
2022-12-31T17:22:35.711Z,67.19
2022-12-31T17:25:09.652Z,67.46
2022-12-31T17:27:40.021Z,67.28
2022-12-31T17:30:40.133Z,67.31
2022-12-31T17:33:33.923Z,66.99
2022-12-31T17:43:43.527Z,67.04
2022-12-31T17:46:16.219Z,67.01
2022-12-31T17:48:49.229Z,66.73
2022-12-31T17:51:24.371Z,67.04
2022-12-31T17:53:55.136Z,66.79
2022-12-31T17:56:25.715Z,66.67
2022-12-31T17:58:56.335Z,66.76
2022-12-31T18:01:26.854Z,66.60
2022-12-31T18:03:57.574Z,66.31
2022-12-31T18:06:28.190Z,66.34
2022-12-31T18:08:58.768Z,66.29
2022-12-31T18:11:29.156Z,66.33
2022-12-31T18:13:59.639Z,66.14
2022-12-31T18:16:30.050Z,66.37
2022-12-31T18:19:01.923Z,66.23
2022-12-31T18:21:34.607Z,66.13
2022-12-31T18:24:07.086Z,65.94
2022-12-31T18:26:37.493Z,65.76
2022-12-31T18:29:16.845Z,65.61
2022-12-31T18:31:49.337Z,65.86
2022-12-31T18:34:20.071Z,65.76
2022-12-31T18:36:50.442Z,65.77
2022-12-31T18:39:20.793Z,65.93
2022-12-31T18:41:51.365Z,65.70
2022-12-31T18:44:21.923Z,65.72
2022-12-31T18:46:52.196Z,65.83
2022-12-31T18:49:26.031Z,65.84
2022-12-31T18:51:57.063Z,65.94
2022-12-31T18:54:27.431Z,65.78
2022-12-31T18:56:57.833Z,65.88
2022-12-31T18:59:28.187Z,66.00
2022-12-31T19:01:59.732Z,66.02
2022-12-31T19:04:30.255Z,65.99
2022-12-31T19:07:00.896Z,65.94
2022-12-31T19:09:45.188Z,65.65
2022-12-31T19:12:17.236Z,65.92
2022-12-31T19:14:47.703Z,65.74
2022-12-31T19:17:18.026Z,65.77
2022-12-31T19:19:48.381Z,65.56
2022-12-31T19:22:18.855Z,65.48
2022-12-31T19:24:49.320Z,65.51
2022-12-31T19:27:19.650Z,65.51
2022-12-31T19:29:50.024Z,65.26
2022-12-31T19:32:20.364Z,65.42
2022-12-31T19:34:50.739Z,65.34
2022-12-31T19:37:21.141Z,65.55
2022-12-31T19:39:51.494Z,65.45
2022-12-31T19:42:21.886Z,65.39
2022-12-31T19:44:52.275Z,65.38
2022-12-31T19:47:22.556Z,65.19
2022-12-31T19:49:52.980Z,65.06
2022-12-31T19:52:23.426Z,65.25
2022-12-31T19:54:53.986Z,65.42
2022-12-31T19:57:24.464Z,65.40
2022-12-31T19:59:54.838Z,65.54
2022-12-31T20:02:25.325Z,65.67
2022-12-31T20:04:55.998Z,65.49
2022-12-31T20:07:27.392Z,65.54
2022-12-31T20:09:57.943Z,65.69
2022-12-31T20:12:29.582Z,65.89
2022-12-31T20:15:00.070Z,65.90
2022-12-31T20:17:30.665Z,65.94
2022-12-31T20:20:01.764Z,65.97
2022-12-31T20:22:32.919Z,65.60
2022-12-31T20:25:03.372Z,65.48
2022-12-31T20:27:33.899Z,65.25
2022-12-31T20:30:04.918Z,65.11
2022-12-31T20:32:35.329Z,64.91
2022-12-31T20:35:06.821Z,64.94
2022-12-31T20:37:37.329Z,64.80
2022-12-31T20:40:09.702Z,64.79
2022-12-31T20:42:40.692Z,64.47
2022-12-31T20:45:12.558Z,64.56
2022-12-31T20:47:42.979Z,64.45
2022-12-31T20:50:13.426Z,64.37
2022-12-31T20:52:44.134Z,64.30
2022-12-31T20:55:15.132Z,64.53
2022-12-31T20:57:45.573Z,64.41
2022-12-31T21:00:17.070Z,64.50
2022-12-31T21:02:56.347Z,64.59
2022-12-31T21:05:30.940Z,64.53
2022-12-31T21:08:01.459Z,64.33
2022-12-31T21:10:31.861Z,64.36
2022-12-31T21:13:02.333Z,64.55
2022-12-31T21:15:32.816Z,64.61
2022-12-31T21:18:03.418Z,64.62
2022-12-31T21:20:33.951Z,64.33
2022-12-31T21:23:04.308Z,64.66
2022-12-31T21:25:35.385Z,64.58
2022-12-31T21:28:05.950Z,64.61
2022-12-31T21:30:36.520Z,64.53
2022-12-31T21:33:07.559Z,64.35
2022-12-31T21:35:45.778Z,64.29
2022-12-31T21:38:22.442Z,64.36
2022-12-31T21:40:52.944Z,64.32
2022-12-31T21:43:23.364Z,64.30
2022-12-31T21:46:03.586Z,64.38
2022-12-31T21:48:34.299Z,64.28
2022-12-31T21:51:12.790Z,64.46
2022-12-31T21:53:43.175Z,64.48
2022-12-31T21:56:14.660Z,64.68
2022-12-31T21:58:46.328Z,64.71
2022-12-31T22:01:37.693Z,64.61
2022-12-31T22:04:28.289Z,64.84
2022-12-31T22:06:59.152Z,65.08
2022-12-31T22:09:29.460Z,65.37
2022-12-31T22:11:59.994Z,65.39
2022-12-31T22:14:30.291Z,65.69
2022-12-31T22:17:00.737Z,65.97
2022-12-31T22:19:31.160Z,66.13
2022-12-31T22:22:02.251Z,66.38
2022-12-31T22:24:32.626Z,66.49
2022-12-31T22:27:28.097Z,66.73
2022-12-31T22:29:53.422Z,67.00
2022-12-31T22:32:23.838Z,66.93
2022-12-31T22:34:54.184Z,66.97
2022-12-31T22:37:55.822Z,67.12
2022-12-31T22:40:14.973Z,67.31
2022-12-31T22:42:45.360Z,67.58
2022-12-31T22:45:16.033Z,67.70
2022-12-31T22:47:46.487Z,67.91
2022-12-31T22:50:17.206Z,68.03
2022-12-31T22:52:47.542Z,68.07
2022-12-31T22:55:17.922Z,68.16
2022-12-31T22:57:48.219Z,68.34
2022-12-31T23:00:20.234Z,68.67
2022-12-31T23:02:50.577Z,68.74
2022-12-31T23:05:20.999Z,68.79
2022-12-31T23:07:51.370Z,68.86
2022-12-31T23:10:39.319Z,68.97
2022-12-31T23:13:27.316Z,69.09
2022-12-31T23:16:15.331Z,69.10
2022-12-31T23:19:05.540Z,69.24
2022-12-31T23:21:53.717Z,69.58
2022-12-31T23:24:26.647Z,69.81
2022-12-31T23:26:57.819Z,69.81
2022-12-31T23:29:28.675Z,69.95
2022-12-31T23:31:59.208Z,69.96
2022-12-31T23:34:29.631Z,70.08
2022-12-31T23:36:59.920Z,70.05
2022-12-31T23:39:30.426Z,70.34
2022-12-31T23:42:01.998Z,70.33
2022-12-31T23:44:32.358Z,70.36
2022-12-31T23:47:02.836Z,70.38
2022-12-31T23:49:33.199Z,70.25
2022-12-31T23:52:03.422Z,70.33
2022-12-31T23:54:34.980Z,70.45
2022-12-31T23:57:05.456Z,70.48
2022-12-31T23:59:35.705Z,70.63
